Time;durP1;ratioP1;P1;durP2;ratioP2;P2;SDS_P1;SDS_P2;PMS_P1;PMS_P2;Temp;Humidity;BMP_temperature;BMP_pressure;BME280_temperature;BME280_humidity;BME280_pressure;Samples;Min_cycle;Max_cycle;Signal;HPM_P1;HPM_P2
2021/07/19 00:00:25;;;;;;;13.35;4.53;;;;;;;18.91;80.53;101056.63;4901565;29;20067;-85
2021/07/19 00:02:59;;;;;;;9.43;4.35;;;;;;;18.95;80.53;101051.84;4881970;29;20058;-84
2021/07/19 00:05:28;;;;;;;14.93;4.65;;;;;;;19.02;79.35;101063.69;4900129;29;20044;-85
2021/07/19 00:11:58;;;;;;;9.43;3.72;;;;;;;19.21;75.63;101058.41;5011726;28;20147;-86
2021/07/19 00:14:32;;;;;;;16.23;4.35;;;;;;;19.10;74.61;101068.34;4995488;28;20050;-85
2021/07/19 00:17:03;;;;;;;7.22;3.72;;;;;;;19.04;74.68;101064.38;4994775;28;20038;-85
2021/07/19 00:19:58;;;;;;;11.65;3.65;;;;;;;18.95;75.05;101071.38;4993835;28;20155;-84
2021/07/19 00:22:26;;;;;;;10.00;3.92;;;;;;;18.91;74.75;101071.75;5013459;28;20041;-85
2021/07/19 00:24:54;;;;;;;10.95;4.60;;;;;;;18.78;73.80;101069.34;5000715;28;20045;-84
2021/07/19 00:27:35;;;;;;;6.82;3.70;;;;;;;18.68;73.80;101063.06;4997261;28;20188;-85
2021/07/19 00:30:10;;;;;;;8.40;4.30;;;;;;;18.69;73.80;101073.66;5000464;28;20049;-84
2021/07/19 00:33:17;;;;;;;8.48;4.07;;;;;;;18.60;74.10;101066.41;5007802;28;20120;-85
2021/07/19 00:35:47;;;;;;;7.32;4.05;;;;;;;18.60;74.55;101071.72;4999953;28;20373;-85
2021/07/19 00:38:31;;;;;;;8.02;4.50;;;;;;;18.68;74.24;101074.56;4999455;28;20051;-84
2021/07/19 00:41:27;;;;;;;9.85;4.97;;;;;;;18.72;73.50;101069.84;5016429;28;20099;-85
2021/07/19 00:44:00;;;;;;;8.65;4.53;;;;;;;18.64;73.24;101069.63;5017182;28;20121;-85
2021/07/19 00:47:30;;;;;;;11.65;4.53;;;;;;;18.48;73.75;101068.28;5000348;28;20183;-87
2021/07/19 00:50:07;;;;;;;9.15;4.80;;;;;;;18.45;74.29;101073.03;5000424;28;20050;-85
2021/07/19 00:53:11;;;;;;;9.20;4.40;;;;;;;18.40;73.21;101083.25;4980489;28;20067;-84
2021/07/19 00:55:51;;;;;;;7.45;4.25;;;;;;;18.34;73.66;101081.09;5032177;28;20128;-85
2021/07/19 00:58:20;;;;;;;13.50;5.10;;;;;;;18.42;73.05;101078.63;5031342;28;20088;-86
2021/07/19 01:00:58;;;;;;;10.77;5.95;;;;;;;18.21;72.93;101081.28;4987886;28;20164;-85
2021/07/19 01:07:59;;;;;;;11.80;5.28;;;;;;;18.27;71.90;101087.91;5031728;28;20511;-84
2021/07/19 01:10:30;;;;;;;9.20;5.50;;;;;;;18.29;71.38;101086.81;5016210;28;20037;-85
2021/07/19 01:13:02;;;;;;;10.13;5.45;;;;;;;18.23;70.68;101087.31;4976488;28;20101;-85
2021/07/19 01:15:33;;;;;;;11.73;5.50;;;;;;;18.03;71.33;101086.31;4995973;28;20069;-84
2021/07/19 01:18:05;;;;;;;14.55;6.22;;;;;;;17.92;71.35;101081.91;5004663;28;20104;-84
2021/07/19 01:21:22;;;;;;;11.75;5.68;;;;;;;17.90;72.26;101091.81;5003950;28;20098;-85
2021/07/19 01:24:57;;;;;;;16.13;6.95;;;;;;;17.85;72.31;101091.34;5017392;28;20083;-84
2021/07/19 01:28:08;;;;;;;11.32;5.43;;;;;;;17.79;72.87;101099.84;5031897;28;20041;-84
2021/07/19 01:30:56;;;;;;;13.30;6.53;;;;;;;17.81;72.97;101100.56;5000718;28;20440;-85
2021/07/19 01:33:38;;;;;;;12.45;5.85;;;;;;;17.64;74.30;101099.22;4992744;28;20057;-85
2021/07/19 01:36:17;;;;;;;14.82;6.15;;;;;;;17.76;74.76;101105.41;4948668;28;20100;-84
2021/07/19 01:38:49;;;;;;;11.15;6.65;;;;;;;17.68;74.96;101106.00;4994218;28;20108;-84
2021/07/19 01:41:26;;;;;;;10.40;5.53;;;;;;;17.62;75.83;101106.50;4982286;28;20044;-84
2021/07/19 01:44:03;;;;;;;9.35;5.35;;;;;;;17.62;75.97;101116.31;5011927;28;20096;-84
2021/07/19 01:47:37;;;;;;;12.98;6.63;;;;;;;17.50;76.20;101117.28;4987761;28;20116;-86
2021/07/19 01:50:29;;;;;;;13.88;6.22;;;;;;;17.45;76.38;101121.16;5010903;28;20049;-84
2021/07/19 01:53:52;;;;;;;12.45;5.63;;;;;;;17.37;76.51;101128.06;5001664;28;20152;-83
2021/07/19 01:56:30;;;;;;;13.07;6.55;;;;;;;17.26;77.11;101134.25;5001184;28;20087;-86
2021/07/19 01:59:17;;;;;;;12.40;6.82;;;;;;;17.19;76.92;101143.66;5015630;28;20038;-84
2021/07/19 02:01:59;;;;;;;14.85;7.43;;;;;;;17.11;77.02;101132.78;5016554;28;20132;-84
2021/07/19 02:04:33;;;;;;;11.07;7.05;;;;;;;17.20;76.74;101130.28;5017068;28;20069;-83
2021/07/19 02:07:14;;;;;;;10.38;5.90;;;;;;;17.06;76.49;101129.63;4998143;28;20063;-84
2021/07/19 02:14:07;;;;;;;15.38;6.78;;;;;;;16.68;77.14;101123.63;4936075;28;20055;-85
2021/07/19 02:16:53;;;;;;;17.10;6.78;;;;;;;16.58;77.18;101119.16;4930678;29;20495;-84
2021/07/19 02:19:31;;;;;;;13.50;6.68;;;;;;;16.66;76.84;101122.91;4949892;28;20379;-85
2021/07/19 02:22:07;;;;;;;16.33;6.57;;;;;;;16.58;77.27;101120.00;4950335;29;20071;-85
2021/07/19 02:24:48;;;;;;;19.15;6.47;;;;;;;16.49;76.47;101119.84;4922124;29;20236;-85
2021/07/19 02:27:37;;;;;;;;;;;;;;;;;;;;;
2021/07/19 02:30:46;;;;;;;12.23;5.80;;;;;;;16.32;77.49;101123.78;4976291;28;20055;-84
2021/07/19 02:33:25;;;;;;;15.45;6.35;;;;;;;16.26;77.32;101122.44;5007383;28;20057;-84
2021/07/19 02:36:03;;;;;;;12.52;6.15;;;;;;;16.14;77.47;101128.66;4992842;28;20073;-85
2021/07/19 02:38:49;;;;;;;22.80;7.20;;;;;;;16.07;77.58;101125.59;5020345;28;20037;-84
2021/07/19 02:45:35;;;;;;;17.00;5.93;;;;;;;16.09;78.25;101129.00;4955956;29;20058;-84
2021/07/19 02:48:08;;;;;;;12.50;5.60;;;;;;;16.13;77.65;101134.94;4952104;28;20610;-84
2021/07/19 02:50:39;;;;;;;14.55;6.43;;;;;;;16.14;76.55;101132.16;4939361;29;20047;-84
2021/07/19 02:53:43;;;;;;;15.02;5.68;;;;;;;16.09;76.67;101129.00;4960487;28;20512;-85
2021/07/19 02:56:14;;;;;;;16.25;5.90;;;;;;;15.98;76.71;101134.22;4914328;28;20470;-84
2021/07/19 02:58:53;;;;;;;17.30;5.22;;;;;;;15.84;76.58;101137.91;4955039;28;20051;-84
2021/07/19 03:01:22;;;;;;;11.70;4.93;;;;;;;15.82;77.58;101141.63;4947669;29;20489;-85
2021/07/19 03:03:54;;;;;;;15.73;5.35;;;;;;;15.75;76.47;101141.22;4936059;29;20498;-84
2021/07/19 03:06:29;;;;;;;19.75;5.85;;;;;;;15.80;77.50;101151.50;4975775;28;20547;-85
2021/07/19 03:12:39;;;;;;;16.67;5.57;;;;;;;15.91;75.98;101163.06;5050036;28;20084;-84
2021/07/19 03:15:12;;;;;;;13.10;5.05;;;;;;;15.99;75.95;101154.53;5007402;28;20420;-84
2021/07/19 03:18:07;;;;;;;14.13;6.55;;;;;;;15.98;76.11;101159.94;5002662;28;20125;-85
2021/07/19 03:20:45;;;;;;;15.27;5.88;;;;;;;16.01;75.98;101162.38;4987705;28;20041;-83
2021/07/19 03:23:15;;;;;;;20.27;5.65;;;;;;;15.91;76.49;101163.06;4978925;28;20132;-83
2021/07/19 03:25:47;;;;;;;15.35;5.72;;;;;;;15.79;77.71;101169.25;4988920;28;20041;-84
2021/07/19 03:28:27;;;;;;;21.27;5.97;;;;;;;15.69;78.86;101174.38;4981729;28;20483;-84
2021/07/19 03:31:08;;;;;;;16.80;5.00;;;;;;;15.79;79.22;101176.34;5004504;28;20041;-84
2021/07/19 03:34:34;;;;;;;23.55;6.47;;;;;;;15.73;78.56;101180.31;4982854;28;20037;-84
2021/07/19 03:37:11;;;;;;;12.52;4.70;;;;;;;15.54;78.72;101185.22;4995643;28;20034;-84
2021/07/19 03:39:42;;;;;;;19.35;6.07;;;;;;;15.49;79.02;101182.88;5021902;28;20037;-84
2021/07/19 03:42:22;;;;;;;17.05;5.70;;;;;;;15.46;78.15;101180.44;4998054;28;20041;-85
2021/07/19 03:45:01;;;;;;;25.33;6.00;;;;;;;15.55;77.83;101181.59;5017831;28;20051;-85
2021/07/19 03:47:39;;;;;;;16.83;5.22;;;;;;;15.53;77.64;101186.16;5017478;28;20026;-84
2021/07/19 03:50:19;;;;;;;17.52;4.95;;;;;;;15.34;77.77;101187.44;5028390;28;20037;-82
2021/07/19 03:53:17;;;;;;;17.52;4.65;;;;;;;15.53;77.81;101186.16;5026003;28;20064;-84
2021/07/19 03:55:51;;;;;;;15.48;5.35;;;;;;;15.70;76.85;101191.97;5010087;28;20052;-83
2021/07/19 04:02:53;;;;;;;19.50;5.45;;;;;;;15.78;75.35;101193.25;5044404;28;20100;-84
2021/07/19 04:05:24;;;;;;;21.48;5.32;;;;;;;15.93;73.58;101187.66;5009664;28;20547;-84
2021/07/19 04:07:56;;;;;;;15.02;5.00;;;;;;;15.98;72.86;101190.00;5017601;28;20103;-84
2021/07/19 04:10:27;;;;;;;14.07;4.82;;;;;;;15.87;72.69;101187.28;4985195;28;20069;-84
2021/07/19 04:13:27;;;;;;;17.52;4.90;;;;;;;15.98;72.06;101182.03;4997643;28;20128;-84
2021/07/19 04:15:59;;;;;;;13.60;4.45;;;;;;;16.01;71.83;101183.63;4966500;28;20046;-85
2021/07/19 04:18:29;;;;;;;14.98;4.60;;;;;;;16.15;71.44;101181.66;4981679;28;20037;-85
2021/07/19 04:21:05;;;;;;;19.35;5.18;;;;;;;16.22;70.82;101191.84;4980937;28;20062;-84
2021/07/19 04:23:37;;;;;;;16.02;5.07;;;;;;;16.15;71.06;101207.38;4996128;28;20042;-86
2021/07/19 04:26:15;;;;;;;22.45;5.70;;;;;;;16.16;70.81;101212.56;4994774;28;20476;-84
2021/07/19 04:28:47;;;;;;;16.42;4.00;;;;;;;16.08;69.87;101214.94;5015312;28;20037;-84
2021/07/19 04:31:20;;;;;;;20.05;4.55;;;;;;;16.02;70.37;101212.72;4997089;28;20057;-84
2021/07/19 04:33:52;;;;;;;18.58;4.63;;;;;;;16.23;69.66;101205.00;4994209;28;20084;-84
2021/07/19 04:37:13;;;;;;;20.42;4.68;;;;;;;16.91;67.31;101206.16;4941150;29;20402;-85
2021/07/19 04:39:49;;;;;;;10.77;4.55;;;;;;;17.68;64.82;101196.53;4972751;28;20035;-84
2021/07/19 04:42:58;;;;;;;15.30;4.53;;;;;;;18.87;60.17;101198.41;4959428;28;20090;-85
2021/07/19 04:45:50;;;;;;;18.70;4.45;;;;;;;20.30;55.21;101194.75;4932686;28;20133;-84
2021/07/19 04:48:27;;;;;;;11.65;4.00;;;;;;;20.97;52.97;101199.28;4939679;28;20085;-84
2021/07/19 04:50:59;;;;;;;11.85;3.63;;;;;;;20.76;52.63;101187.88;4957816;28;20065;-84
2021/07/19 04:57:33;;;;;;;14.85;4.05;;;;;;;18.77;57.95;101202.81;5015678;28;20431;-84
2021/07/19 05:00:12;;;;;;;13.82;4.10;;;;;;;18.04;60.62;101212.38;4988705;28;20041;-84
2021/07/19 05:02:41;;;;;;;14.77;4.40;;;;;;;18.04;62.08;101207.06;5000416;28;20053;-84
2021/07/19 05:05:19;;;;;;;17.52;4.65;;;;;;;18.66;58.85;101204.53;5019144;28;20045;-83
2021/07/19 05:08:28;;;;;;;17.48;4.30;;;;;;;21.42;50.98;101202.13;5015543;28;20496;-83
2021/07/19 05:11:02;;;;;;;16.63;4.85;;;;;;;20.78;51.61;101200.16;4990722;28;20054;-84
2021/07/19 05:13:49;;;;;;;17.08;5.03;;;;;;;19.30;54.53;101218.75;5007937;28;20064;-83
2021/07/19 05:17:02;;;;;;;15.57;4.75;;;;;;;18.80;57.00;101221.25;5020083;28;20095;-84
2021/07/19 05:19:36;;;;;;;19.13;5.05;;;;;;;18.15;58.55;101223.88;4989763;28;20053;-84
2021/07/19 05:22:16;;;;;;;20.25;5.20;;;;;;;18.44;57.30;101215.31;4989243;28;20041;-84
2021/07/19 05:24:59;;;;;;;17.25;4.88;;;;;;;17.59;59.77;101223.88;5004887;28;20033;-84
2021/07/19 05:27:33;;;;;;;23.33;5.53;;;;;;;18.22;58.72;101230.38;4987303;28;20057;-85
2021/07/19 05:30:04;;;;;;;15.18;5.22;;;;;;;18.14;58.28;101224.81;5020216;28;20053;-84
2021/07/19 05:32:42;;;;;;;15.63;4.70;;;;;;;18.38;58.29;101218.47;5000350;28;20116;-84
2021/07/19 05:35:23;;;;;;;15.57;4.57;;;;;;;19.14;55.44;101212.06;5025098;28;20475;-84
2021/07/19 05:37:56;;;;;;;15.10;4.85;;;;;;;19.29;55.47;101215.25;5028650;28;20064;-84
2021/07/19 05:40:26;;;;;;;17.80;5.65;;;;;;;19.31;54.26;101213.28;5006008;28;20037;-84
2021/07/19 05:46:26;;;;;;;14.32;5.32;;;;;;;19.56;54.36;101220.00;5009388;28;20053;-85
2021/07/19 05:48:57;;;;;;;15.05;5.32;;;;;;;21.70;47.75;101218.22;4983312;28;20503;-83
2021/07/19 05:51:41;;;;;;;20.33;4.63;;;;;;;23.30;44.37;101220.13;5019774;28;20045;-86
2021/07/19 05:54:14;;;;;;;12.48;5.15;;;;;;;22.68;44.60;101212.09;5018853;28;20033;-86
2021/07/19 05:57:48;;;;;;;15.10;5.00;;;;;;;20.86;48.85;101227.03;5001194;28;20058;-84
2021/07/19 06:00:18;;;;;;;12.63;5.40;;;;;;;19.73;52.32;101227.44;5004544;28;20121;-84
2021/07/19 06:02:57;;;;;;;15.60;5.63;;;;;;;19.34;53.29;101229.03;4986985;28;20050;-84
2021/07/19 06:05:32;;;;;;;15.88;6.40;;;;;;;19.04;54.36;101229.81;5017784;28;20046;-84
2021/07/19 06:08:28;;;;;;;14.32;5.05;;;;;;;19.66;53.37;101234.28;4935434;28;20070;-85
2021/07/19 06:10:59;;;;;;;18.15;5.38;;;;;;;19.48;53.94;101228.69;5020127;28;20061;-84
2021/07/19 06:13:29;;;;;;;27.40;6.00;;;;;;;19.54;53.40;101235.31;4986161;28;20045;-85
2021/07/19 06:16:26;;;;;;;18.92;5.95;;;;;;;20.38;51.93;101229.69;4987564;28;20072;-84
2021/07/19 06:19:02;;;;;;;17.08;5.82;;;;;;;20.97;49.91;101223.34;5002362;28;20037;-85
2021/07/19 06:21:29;;;;;;;14.52;5.45;;;;;;;21.09;49.55;101218.69;4986529;28;20136;-85
2021/07/19 06:24:00;;;;;;;13.05;5.68;;;;;;;22.29;46.56;101226.81;5026828;28;20037;-85
2021/07/19 06:26:33;;;;;;;9.32;4.80;;;;;;;23.12;44.26;101217.50;4981992;28;20052;-85
2021/07/19 06:29:04;;;;;;;17.85;5.90;;;;;;;23.32;43.21;101219.97;4967174;28;20107;-85
2021/07/19 06:31:32;;;;;;;14.60;5.32;;;;;;;23.25;43.54;101219.78;4984714;28;20050;-87
2021/07/19 06:34:14;;;;;;;13.05;5.75;;;;;;;25.13;39.99;101217.63;4985856;28;20052;-86
2021/07/19 06:36:41;;;;;;;13.60;5.93;;;;;;;26.85;36.55;101214.91;5003443;28;20052;-86
2021/07/19 06:39:10;;;;;;;16.33;5.80;;;;;;;27.93;34.11;101212.56;4993075;28;20136;-87
2021/07/19 06:41:40;;;;;;;11.82;5.40;;;;;;;26.09;36.93;101222.84;5003878;28;20463;-86
2021/07/19 06:44:16;;;;;;;12.40;5.35;;;;;;;24.49;40.29;101215.56;4987167;28;20037;-85
2021/07/19 06:46:54;;;;;;;16.08;6.18;;;;;;;24.67;40.82;101215.41;5003343;28;20232;-85
2021/07/19 06:54:51;;;;;;;10.52;5.78;;;;;;;22.41;45.49;101229.13;5038484;28;20125;-85
2021/07/19 07:01:20;;;;;;;14.43;6.25;;;;;;;25.01;39.94;101222.47;5036406;28;20134;-85
2021/07/19 07:03:54;;;;;;;15.38;6.72;;;;;;;25.60;38.28;101222.19;5005735;28;20465;-84
2021/07/19 08:04:10;;;;;;;16.63;7.38;;;;;;;25.69;36.78;101196.88;5038207;28;20047;-85
2021/07/19 08:06:43;;;;;;;15.93;6.85;;;;;;;26.33;36.41;101199.41;5000660;28;20048;-86
2021/07/19 08:09:34;;;;;;;9.40;6.25;;;;;;;25.73;36.71;101195.50;4968277;28;20043;-84
2021/07/19 08:21:17;;;;;;;15.43;6.85;;;;;;;24.10;40.11;101183.03;4991502;28;20055;-84
2021/07/19 08:23:46;;;;;;;15.95;6.70;;;;;;;24.22;40.16;101184.38;5016464;28;20037;-85
2021/07/19 08:48:04;;;;;;;12.13;6.20;;;;;;;22.77;41.85;101191.53;5016922;28;20068;-84
2021/07/19 08:50:33;;;;;;;18.02;7.10;;;;;;;22.32;43.47;101191.66;5000826;28;20116;-84
2021/07/19 08:54:11;;;;;;;17.13;7.38;;;;;;;22.18;43.75;101193.84;4981368;28;20107;-84
2021/07/19 08:56:39;;;;;;;16.90;6.43;;;;;;;21.89;45.12;101193.19;4998756;28;20053;-85
2021/07/19 08:59:08;;;;;;;17.38;7.55;;;;;;;22.97;42.98;101181.50;5033712;28;20127;-84
2021/07/19 09:01:38;;;;;;;18.92;7.25;;;;;;;23.17;40.91;101190.16;5013854;28;20111;-83
2021/07/19 09:04:10;;;;;;;12.27;6.90;;;;;;;23.35;40.63;101184.72;5008434;28;20057;-83
2021/07/19 09:06:39;;;;;;;12.18;7.00;;;;;;;22.97;41.46;101189.53;4996155;28;20111;-84
2021/07/19 09:09:07;;;;;;;11.38;6.00;;;;;;;22.87;42.64;101186.91;5011772;28;20072;-85
2021/07/19 09:11:34;;;;;;;11.68;6.30;;;;;;;23.43;41.63;101184.78;4981303;28;20041;-85
2021/07/19 09:14:05;;;;;;;11.32;5.22;;;;;;;23.43;41.09;101174.03;5014636;28;20076;-86
2021/07/19 09:16:46;;;;;;;15.23;6.88;;;;;;;23.59;41.23;101175.94;5003284;28;20057;-85
2021/07/19 09:19:16;;;;;;;14.50;6.47;;;;;;;22.80;42.89;101172.44;5003130;28;20073;-84
2021/07/19 09:21:47;;;;;;;12.73;6.93;;;;;;;22.31;43.81;101179.22;4998329;28;20046;-85
2021/07/19 09:24:22;;;;;;;11.20;6.13;;;;;;;21.63;44.86;101185.84;5010770;28;20124;-86
2021/07/19 09:26:51;;;;;;;11.45;6.07;;;;;;;21.38;45.71;101190.00;4973738;28;20046;-85
2021/07/19 09:29:22;;;;;;;14.35;6.72;;;;;;;21.24;46.04;101188.63;5010513;28;20046;-85
2021/07/19 09:31:56;;;;;;;18.50;6.90;;;;;;;21.05;46.09;101187.84;4978279;28;20074;-86
2021/07/19 09:34:33;;;;;;;23.77;6.95;;;;;;;20.90;46.50;101190.16;4978803;28;20522;-85
2021/07/19 09:38:22;;;;;;;14.63;6.90;;;;;;;21.32;46.75;101195.97;5005105;28;20049;-86
2021/07/19 09:41:22;;;;;;;10.30;6.70;;;;;;;21.48;46.38;101193.53;4996806;28;20050;-84
2021/07/19 09:44:21;;;;;;;12.98;5.60;;;;;;;21.71;45.54;101187.78;4980425;28;20132;-84
2021/07/19 09:46:52;;;;;;;11.93;5.93;;;;;;;21.30;46.68;101189.03;4978543;28;20046;-84
2021/07/19 09:53:39;;;;;;;11.80;5.53;;;;;;;21.19;46.71;101184.72;5011034;28;20057;-84
2021/07/19 09:56:12;;;;;;;14.85;6.35;;;;;;;21.33;46.76;101183.41;5011932;28;20045;-85
2021/07/19 09:58:47;;;;;;;15.20;6.25;;;;;;;22.07;45.59;101183.34;5007348;28;20492;-83
2021/07/19 10:01:28;;;;;;;10.33;5.77;;;;;;;22.00;45.62;101176.88;5018959;28;20440;-82
2021/07/19 10:04:33;;;;;;;15.43;5.47;;;;;;;22.20;45.17;101178.47;5007358;28;20107;-82
2021/07/19 10:07:08;;;;;;;17.90;5.53;;;;;;;22.01;45.58;101181.22;4962896;28;20046;-84
2021/07/19 10:09:39;;;;;;;16.50;6.57;;;;;;;22.00;45.21;101182.25;4964016;28;20535;-84
2021/07/19 10:12:14;;;;;;;9.88;5.70;;;;;;;20.72;47.40;101190.03;4976516;28;20050;-85
2021/07/19 10:19:57;;;;;;;9.90;5.65;;;;;;;20.56;49.29;101187.06;5013652;28;20384;-84
2021/07/19 11:06:37;;;;;;;11.45;5.22;;;;;;;21.84;46.34;101199.00;4998268;28;20076;-86
2021/07/19 11:13:36;;;;;;;9.77;4.15;;;;;;;21.45;47.72;101193.81;5027765;28;20164;-86
2021/07/19 11:16:19;;;;;;;10.82;4.90;;;;;;;21.68;46.39;101194.28;4987058;28;20091;-84
2021/07/19 11:22:44;;;;;;;5.47;3.50;;;;;;;20.54;48.64;101194.41;5036162;28;20103;-85
2021/07/19 11:25:18;;;;;;;12.02;4.00;;;;;;;20.67;49.51;101187.78;4985740;28;20389;-86
2021/07/19 11:41:46;;;;;;;7.80;3.03;;;;;;;22.24;45.83;101185.22;5035878;28;20210;-85
2021/07/19 11:44:17;;;;;;;11.10;3.20;;;;;;;22.46;45.16;101188.41;5001986;28;20384;-86
2021/07/19 11:47:41;;;;;;;11.18;3.13;;;;;;;22.92;43.44;101181.97;5000610;28;20424;-85
2021/07/19 11:51:21;;;;;;;10.50;3.40;;;;;;;23.16;42.69;101183.97;5020893;28;20043;-87
2021/07/19 11:53:52;;;;;;;9.60;3.65;;;;;;;23.35;42.86;101174.81;5013271;28;20075;-85
2021/07/19 11:56:26;;;;;;;8.65;3.80;;;;;;;23.84;41.67;101176.91;4990774;28;20033;-86
2021/07/19 11:59:00;;;;;;;11.63;3.63;;;;;;;23.80;41.54;101175.53;5004500;28;20065;-84
2021/07/19 12:01:30;;;;;;;9.82;3.42;;;;;;;23.05;42.69;101167.25;4983688;28;20416;-87
2021/07/19 12:03:59;;;;;;;9.05;3.80;;;;;;;23.57;41.60;101167.19;5010449;28;20052;-85
2021/07/19 12:06:27;;;;;;;6.32;3.55;;;;;;;24.01;41.31;101167.88;5028904;28;20052;-80
2021/07/19 12:09:02;;;;;;;9.23;3.88;;;;;;;24.04;41.35;101170.22;5012498;28;20148;-84
2021/07/19 12:11:31;;;;;;;10.32;3.58;;;;;;;23.41;42.68;101168.78;5003944;28;20091;-84
2021/07/19 12:14:09;;;;;;;10.15;3.75;;;;;;;22.69;43.99;101165.47;5009005;28;20049;-83
2021/07/19 12:16:39;;;;;;;11.77;4.18;;;;;;;22.29;44.84;101174.03;5003089;28;20048;-85
2021/07/19 12:19:08;;;;;;;9.35;3.92;;;;;;;22.62;44.65;101166.25;5020581;28;20072;-84
2021/07/19 12:21:46;;;;;;;8.65;3.70;;;;;;;21.96;45.82;101175.47;4997714;28;20082;-84
2021/07/19 12:24:16;;;;;;;14.02;3.63;;;;;;;21.73;45.94;101169.69;4993862;28;20140;-83
2021/07/19 12:26:48;;;;;;;8.05;3.58;;;;;;;21.87;46.40;101182.59;5010307;28;20077;-85
2021/07/19 12:29:33;;;;;;;12.57;4.57;;;;;;;21.49;46.01;101175.63;5022780;28;20497;-83
2021/07/19 12:32:08;;;;;;;;;;;;;;;21.42;47.04;101174.50;4995680;28;20572;-86
2021/07/19 12:38:19;;;;;;;12.45;4.53;;;;;;;21.47;48.16;101173.06;4996604;28;20034;-85
2021/07/19 12:57:52;;;;;;;8.95;4.22;;;;;;;22.24;46.16;101158.41;5013867;28;20113;-85
2021/07/19 13:00:23;;;;;;;11.80;4.38;;;;;;;22.21;46.23;101161.38;4996809;28;20064;-85
2021/07/19 13:11:37;;;;;;;13.88;4.28;;;;;;;23.19;43.49;101153.22;5015209;28;20596;-85
2021/07/19 13:14:59;;;;;;;10.50;4.82;;;;;;;23.13;42.92;101153.88;4996199;28;20051;-85
2021/07/19 13:17:30;;;;;;;7.40;3.70;;;;;;;22.43;44.28;101151.19;5005863;28;20108;-86
2021/07/19 13:20:03;;;;;;;7.32;4.15;;;;;;;22.09;45.21;101146.47;5016210;28;20061;-84
2021/07/19 13:22:39;;;;;;;5.60;3.78;;;;;;;22.09;44.49;101151.00;4998005;28;20541;-85
2021/07/19 13:46:38;;;;;;;14.27;5.53;;;;;;;20.30;49.90;101144.81;5033057;28;20055;-85
2021/07/19 14:14:04;;;;;;;13.45;5.20;;;;;;;19.37;54.12;101150.50;4990275;28;20124;-84
2021/07/19 15:17:39;;;;;;;13.82;3.78;;;;;;;21.73;45.64;101116.09;5041604;28;20044;-84
2021/07/19 16:27:09;;;;;;;10.07;4.88;;;;;;;19.63;50.42;101113.50;5034411;28;20380;-85
2021/07/19 18:21:18;;;;;;;10.05;5.07;;;;;;;18.87;54.13;101083.72;5027067;28;20040;-84
2021/07/19 19:36:17;;;;;;;12.52;5.18;;;;;;;17.19;62.34;101120.56;5044457;28;20132;-85
